Time;durP1;ratioP1;P1;durP2;ratioP2;P2;SDS_P1;SDS_P2;PMS_P1;PMS_P2;Temp;Humidity;BMP_temperature;BMP_pressure;BME280_temperature;BME280_humidity;BME280_pressure;Samples;Min_cycle;Max_cycle;Signal;HPM_P1;HPM_P2
2022/03/28 00:06:25;;;;;;;;;;;;;;;23.23;37.22;101500.34;20730736;27;97726;-78
2022/03/28 00:16:26;;;;;;;;;;;;;;;23.17;37.59;101493.66;20732369;27;97233;-79
2022/03/28 00:26:27;;;;;;;;;;;;;;;23.19;37.93;101477.69;20729444;27;97042;-79
2022/03/28 00:36:27;;;;;;;;;;;;;;;23.21;37.80;101477.63;20732749;27;98551;-78
2022/03/28 00:46:28;;;;;;;;;;;;;;;23.18;37.79;101470.75;20727263;27;98051;-78
2022/03/28 00:56:28;;;;;;;;;;;;;;;23.18;37.83;101461.00;20727714;27;98600;-78
2022/03/28 01:06:30;;;;;;;;;;;;;;;23.13;38.06;101460.47;20732883;27;97546;-77
2022/03/28 01:18:05;;;;;;;;;;;;;;;23.12;37.88;101455.25;20735189;27;97580;-79
2022/03/28 01:26:52;;;;;;;;;;;;;;;23.08;37.49;101444.06;20724427;27;97749;-79
2022/03/28 01:36:52;;;;;;;;;;;;;;;23.09;37.90;101426.44;20722744;27;98343;-78
2022/03/28 01:46:53;;;;;;;;;;;;;;;23.07;37.91;101418.63;20720650;27;97102;-78
2022/03/28 01:56:53;;;;;;;;;;;;;;;23.04;37.57;101413.53;20724617;27;99477;-78
2022/03/28 02:06:54;;;;;;;;;;;;;;;23.03;38.25;101411.84;20722428;27;96963;-79
2022/03/28 02:16:54;;;;;;;;;;;;;;;23.00;37.98;101402.34;20721024;27;97685;-79
2022/03/28 02:26:55;;;;;;;;;;;;;;;23.01;38.28;101404.03;20725638;27;97427;-77
2022/03/28 02:36:55;;;;;;;;;;;;;;;22.99;37.92;101399.81;20711400;27;97279;-79
2022/03/28 02:46:56;;;;;;;;;;;;;;;22.99;38.36;101402.44;20709437;27;97150;-78
2022/03/28 02:56:56;;;;;;;;;;;;;;;22.97;38.26;101402.56;20714978;27;97055;-78
2022/03/28 03:06:57;;;;;;;;;;;;;;;22.96;38.23;101402.66;20732374;27;97065;-78
2022/03/28 03:16:59;;;;;;;;;;;;;;;22.95;38.11;101388.59;20729145;27;97505;-78
2022/03/28 03:26:59;;;;;;;;;;;;;;;22.92;38.47;101387.97;20720883;27;96861;-78
2022/03/28 03:37:00;;;;;;;;;;;;;;;22.86;38.48;101379.53;20724764;27;96849;-78
2022/03/28 03:47:00;;;;;;;;;;;;;;;22.86;38.40;101376.88;20717626;27;97093;-78
2022/03/28 03:57:02;;;;;;;;;;;;;;;22.84;38.41;101370.84;20721112;27;97085;-78
2022/03/28 04:07:03;;;;;;;;;;;;;;;22.80;38.34;101365.88;20713902;27;102101;-77
2022/03/28 04:17:04;;;;;;;;;;;;;;;22.79;38.37;101375.63;20704070;27;97675;-77
2022/03/28 04:27:05;;;;;;;;;;;;;;;22.95;40.38;101375.41;20709329;27;97694;-78
2022/03/28 04:37:06;;;;;;;;;;;;;;;23.01;40.65;101367.03;20729734;27;98492;-81
2022/03/28 04:47:06;;;;;;;;;;;;;;;23.04;40.79;101376.56;20738305;27;97108;-78
2022/03/28 04:57:07;;;;;;;;;;;;;;;23.05;41.22;101357.13;20731212;27;98039;-76
2022/03/28 05:07:07;;;;;;;;;;;;;;;22.78;33.49;101373.94;20730842;27;97591;-75
2022/03/28 05:17:09;;;;;;;;;;;;;;;22.59;31.59;101376.97;20733747;27;100929;-76
2022/03/28 05:27:09;;;;;;;;;;;;;;;22.57;33.58;101375.38;20698503;27;98830;-76
2022/03/28 05:37:11;;;;;;;;;;;;;;;22.46;33.95;101381.38;20713767;27;100435;-76
2022/03/28 05:47:12;;;;;;;;;;;;;;;22.48;34.13;101375.03;20711820;27;97938;-76
2022/03/28 05:57:14;;;;;;;;;;;;;;;22.60;37.22;101368.09;20726625;27;97033;-75
2022/03/28 06:07:15;;;;;;;;;;;;;;;22.65;37.57;101370.44;20716436;27;97893;-75
2022/03/28 06:17:22;;;;;;;;;;;;;;;22.66;37.89;101361.56;20720331;27;97316;-75
2022/03/28 06:27:26;;;;;;;;;;;;;;;22.67;37.63;101356.19;20712358;27;98649;-77
2022/03/28 06:37:26;;;;;;;;;;;;;;;22.66;38.16;101362.41;20728716;27;97878;-76
2022/03/28 06:47:27;;;;;;;;;;;;;;;22.66;38.10;101353.66;20732358;27;97753;-76
2022/03/28 06:57:27;;;;;;;;;;;;;;;22.66;38.03;101346.56;20739117;27;97639;-76
2022/03/28 07:07:28;;;;;;;;;;;;;;;22.66;38.36;101343.91;20734084;27;101561;-77
2022/03/28 07:17:28;;;;;;;;;;;;;;;22.67;37.97;101345.63;20725026;27;97487;-77
2022/03/28 07:27:29;;;;;;;;;;;;;;;22.66;37.95;101328.06;20728334;27;98178;-77
2022/03/28 07:37:30;;;;;;;;;;;;;;;22.72;38.07;101326.81;20707660;27;97784;-75
2022/03/28 07:47:31;;;;;;;;;;;;;;;22.74;38.19;101329.34;20723163;27;100150;-75
2022/03/28 07:57:31;;;;;;;;;;;;;;;22.68;33.66;101330.63;20718219;27;98626;-76
2022/03/28 08:07:32;;;;;;;;;;;;;;;22.58;29.46;101326.94;20722593;27;101453;-78
2022/03/28 08:17:34;;;;;;;;;;;;;;;22.50;28.07;101308.97;20710531;27;100676;-78
2022/03/28 08:27:34;;;;;;;;;;;;;;;22.44;25.85;101301.50;20719499;27;98388;-76
2022/03/28 08:37:35;;;;;;;;;;;;;;;22.35;26.01;101285.28;20716986;27;99170;-76
2022/03/28 08:47:37;;;;;;;;;;;;;;;22.29;25.47;101275.16;20712063;27;97679;-76
2022/03/28 08:57:38;;;;;;;;;;;;;;;22.35;27.73;101261.53;20724166;27;97927;-76
2022/03/28 09:07:39;;;;;;;;;;;;;;;22.42;28.11;101259.34;20716908;27;97071;-76
2022/03/28 09:17:40;;;;;;;;;;;;;;;21.68;25.35;101246.69;20720707;27;97620;-76
2022/03/28 09:27:49;;;;;;;;;;;;;;;21.31;26.54;101246.38;20725153;27;100815;-77
2022/03/28 09:37:50;;;;;;;;;;;;;;;21.91;27.80;101223.22;20719627;27;98134;-76
2022/03/28 09:47:59;;;;;;;;;;;;;;;22.15;27.92;101214.56;20722369;27;97360;-78
2022/03/28 09:58:00;;;;;;;;;;;;;;;22.31;30.79;101194.09;20718286;27;97135;-78
2022/03/28 10:08:02;;;;;;;;;;;;;;;22.50;31.38;101169.09;20719192;27;102219;-78
2022/03/28 10:18:03;;;;;;;;;;;;;;;22.63;33.71;101162.00;20709222;27;98096;-78
2022/03/28 10:28:03;;;;;;;;;;;;;;;22.71;34.17;101140.31;20712688;27;96973;-80
2022/03/28 10:38:14;;;;;;;;;;;;;;;22.86;34.55;101115.47;20700094;27;97853;-79
2022/03/28 10:48:15;;;;;;;;;;;;;;;23.01;35.09;101097.63;20706093;27;100730;-78
2022/03/28 10:58:17;;;;;;;;;;;;;;;23.21;35.25;101071.56;20692264;27;98088;-77
2022/03/28 11:08:33;;;;;;;;;;;;;;;23.38;35.51;101062.34;20700688;27;102229;-77
2022/03/28 11:18:34;;;;;;;;;;;;;;;23.61;35.63;101034.16;20698648;27;100202;-77
2022/03/28 11:28:38;;;;;;;;;;;;;;;23.74;36.16;101017.31;20718813;27;96970;-76
2022/03/28 11:38:40;;;;;;;;;;;;;;;23.82;36.48;100991.13;20722450;27;99425;-77
2022/03/28 11:48:54;;;;;;;;;;;;;;;23.91;36.04;100966.59;20724706;27;97073;-76
2022/03/28 11:59:03;;;;;;;;;;;;;;;24.03;35.82;100924.28;20716713;27;97834;-77
2022/03/28 12:09:07;;;;;;;;;;;;;;;24.19;36.06;100911.44;20732796;27;97641;-80
2022/03/28 12:19:17;;;;;;;;;;;;;;;24.30;36.25;100882.31;20726170;27;97122;-80
2022/03/28 12:29:18;;;;;;;;;;;;;;;24.35;31.87;100870.50;20729430;27;98937;-80
2022/03/28 12:39:19;;;;;;;;;;;;;;;24.30;31.30;100836.47;20719773;27;99105;-79
2022/03/28 12:49:20;;;;;;;;;;;;;;;24.28;28.62;100825.19;20700192;27;97800;-78
2022/03/28 12:59:24;;;;;;;;;;;;;;;24.28;28.31;100790.78;20717486;27;97981;-78
2022/03/28 13:09:24;;;;;;;;;;;;;;;24.30;28.39;100770.31;20727032;27;97455;-80
2022/03/28 13:19:25;;;;;;;;;;;;;;;24.36;27.46;100745.13;20720137;27;97671;-80
2022/03/28 13:29:30;;;;;;;;;;;;;;;24.37;28.72;100726.47;20719628;27;97054;-81
2022/03/28 13:39:34;;;;;;;;;;;;;;;24.33;28.95;100708.34;20711318;27;97607;-79
2022/03/28 13:49:35;;;;;;;;;;;;;;;24.28;29.12;100687.59;20717011;27;99307;-80
2022/03/28 13:59:35;;;;;;;;;;;;;;;24.26;29.49;100663.88;20724360;27;98405;-79
2022/03/28 14:09:36;;;;;;;;;;;;;;;24.24;29.53;100644.69;20711995;27;100889;-79
2022/03/28 14:19:36;;;;;;;;;;;;;;;24.22;29.50;100621.97;20721288;27;98931;-79
2022/03/28 14:29:37;;;;;;;;;;;;;;;24.20;29.42;100595.63;20718248;27;97004;-78
2022/03/28 14:39:38;;;;;;;;;;;;;;;24.18;29.01;100580.84;20716546;27;98358;-78
2022/03/28 14:49:39;;;;;;;;;;;;;;;24.19;29.35;100569.31;20697195;27;97973;-77
2022/03/28 14:59:39;;;;;;;;;;;;;;;24.22;29.21;100556.66;20713417;27;98221;-78
2022/03/28 15:09:40;;;;;;;;;;;;;;;24.25;28.52;100545.78;20724471;27;97538;-77
2022/03/28 15:19:41;;;;;;;;;;;;;;;24.23;28.40;100528.38;20725290;27;97464;-77
2022/03/28 15:29:41;;;;;;;;;;;;;;;24.22;28.15;100516.97;20727132;27;96826;-77
2022/03/28 15:39:42;;;;;;;;;;;;;;;24.20;28.05;100505.66;20720686;27;97707;-76
2022/03/28 15:49:42;;;;;;;;;;;;;;;24.20;28.34;100489.78;20721804;27;101797;-77
2022/03/28 15:59:44;;;;;;;;;;;;;;;24.20;27.92;100473.09;20722998;27;96993;-77
2022/03/28 16:09:45;;;;;;;;;;;;;;;24.22;25.70;100463.22;20722703;27;100106;-76
2022/03/28 16:19:46;;;;;;;;;;;;;;;24.17;26.24;100455.69;20715194;27;97677;-76
2022/03/28 16:29:46;;;;;;;;;;;;;;;24.16;26.16;100453.16;20734271;27;97651;-76
2022/03/28 16:39:48;;;;;;;;;;;;;;;24.06;26.40;100439.91;20721660;27;98120;-75
2022/03/28 16:49:52;;;;;;;;;;;;;;;23.97;26.85;100433.63;20720740;27;97144;-75
2022/03/28 16:59:52;;;;;;;;;;;;;;;23.91;26.72;100426.22;20713182;27;99243;-75
2022/03/28 17:09:53;;;;;;;;;;;;;;;23.74;25.81;100415.34;20700162;27;101265;-76
2022/03/28 17:19:54;;;;;;;;;;;;;;;23.69;25.20;100414.06;20706579;27;100734;-78
2022/03/28 17:29:55;;;;;;;;;;;;;;;23.64;26.78;100415.31;20708823;27;97417;-78
2022/03/28 17:40:01;;;;;;;;;;;;;;;23.60;25.75;100421.00;20709568;27;98192;-79
2022/03/28 17:50:03;;;;;;;;;;;;;;;23.77;26.88;100422.16;20717386;27;100425;-81
2022/03/28 18:00:04;;;;;;;;;;;;;;;23.95;27.81;100425.84;20712124;27;96866;-82
2022/03/28 18:10:06;;;;;;;;;;;;;;;23.99;29.54;100421.13;20696989;27;100736;-84
2022/03/28 18:20:11;;;;;;;;;;;;;;;24.07;30.12;100408.06;20734704;27;97093;-81
2022/03/28 18:30:12;;;;;;;;;;;;;;;24.11;32.42;100419.19;20736476;27;97125;-81
2022/03/28 18:40:14;;;;;;;;;;;;;;;24.12;32.18;100403.19;20728937;27;98468;-82
2022/03/28 18:50:15;;;;;;;;;;;;;;;24.11;32.38;100398.03;20728741;27;98416;-83
2022/03/28 19:00:16;;;;;;;;;;;;;;;24.08;34.58;100393.00;20680445;27;98928;-77
2022/03/28 19:10:16;;;;;;;;;;;;;;;23.96;32.96;100397.56;20679114;27;98204;-77
2022/03/28 19:20:19;;;;;;;;;;;;;;;23.77;33.84;100393.91;20712312;27;97562;-77
2022/03/28 19:30:19;;;;;;;;;;;;;;;23.66;33.79;100380.81;20702257;27;97625;-74
2022/03/28 19:40:20;;;;;;;;;;;;;;;23.63;33.82;100381.06;20687817;27;99582;-76
2022/03/28 19:50:20;;;;;;;;;;;;;;;23.59;34.11;100377.84;20722447;27;97449;-76
2022/03/28 20:00:23;;;;;;;;;;;;;;;23.56;34.33;100366.72;20718407;27;97675;-76
2022/03/28 20:10:24;;;;;;;;;;;;;;;23.47;34.37;100344.56;20723339;27;98144;-76
2022/03/28 20:20:26;;;;;;;;;;;;;;;23.37;34.42;100331.34;20729200;27;97218;-76
2022/03/28 20:30:27;;;;;;;;;;;;;;;23.37;34.64;100317.31;20719866;27;98730;-76
2022/03/28 20:40:28;;;;;;;;;;;;;;;23.38;34.56;100303.94;20682256;27;99255;-77
2022/03/28 20:50:29;;;;;;;;;;;;;;;23.37;34.86;100301.44;20684217;27;100492;-75
2022/03/28 21:00:30;;;;;;;;;;;;;;;23.33;34.98;100292.97;20688923;27;98075;-77
2022/03/28 21:10:32;;;;;;;;;;;;;;;23.29;35.41;100276.53;20694137;27;103470;-76
2022/03/28 21:20:39;;;;;;;;;;;;;;;23.27;35.30;100282.94;20691127;27;99877;-76
2022/03/28 21:30:39;;;;;;;;;;;;;;;23.24;35.60;100275.25;20707234;27;100710;-76
2022/03/28 21:40:40;;;;;;;;;;;;;;;23.20;35.77;100260.66;20689871;27;97546;-76
2022/03/28 21:50:41;;;;;;;;;;;;;;;23.17;35.73;100245.94;20675931;27;98530;-75
2022/03/28 22:00:45;;;;;;;;;;;;;;;23.16;35.79;100239.78;20674697;27;99109;-76
2022/03/28 22:10:45;;;;;;;;;;;;;;;23.15;35.89;100229.34;20675132;27;100325;-76
2022/03/28 22:20:46;;;;;;;;;;;;;;;23.13;35.91;100224.19;20675389;27;98667;-76
2022/03/28 22:30:46;;;;;;;;;;;;;;;23.11;36.09;100207.63;20676943;27;97891;-76
2022/03/28 22:40:47;;;;;;;;;;;;;;;23.09;36.01;100204.28;20676394;27;100737;-76
2022/03/28 22:50:48;;;;;;;;;;;;;;;23.08;36.15;100194.69;20672827;27;99264;-76
2022/03/28 23:00:49;;;;;;;;;;;;;;;23.05;36.80;100189.69;20671259;27;99495;-76
2022/03/28 23:10:49;;;;;;;;;;;;;;;23.04;36.79;100180.09;20673078;27;97535;-76
2022/03/28 23:20:50;;;;;;;;;;;;;;;23.02;36.85;100163.56;20622811;27;102060;-75
2022/03/28 23:30:54;;;;;;;;;;;;;;;23.00;36.41;100160.22;20691919;27;99145;-75
2022/03/28 23:40:55;;;;;;;;;;;;;;;22.99;36.64;100153.28;20694302;27;98950;-75
2022/03/28 23:50:56;;;;;;;;;;;;;;;23.00;36.71;100152.31;20686494;27;97892;-76
